createdAt,value
2019-06-26T00:00:12.929Z,37.80
2019-06-26T00:02:45.139Z,41.60
2019-06-26T00:05:16.842Z,43.40
2019-06-26T00:07:48.532Z,40.40
2019-06-26T00:10:20.485Z,40.00
2019-06-26T00:12:53.900Z,42.80
2019-06-26T00:15:25.635Z,36.80
2019-06-26T00:17:57.657Z,44.80
2019-06-26T00:20:29.525Z,44.80
2019-06-26T00:23:01.059Z,41.80
2019-06-26T00:25:32.625Z,40.80
2019-06-26T00:28:04.272Z,44.20
2019-06-26T00:30:36.105Z,41.40
2019-06-26T00:33:07.931Z,42.60
2019-06-26T00:35:39.519Z,37.00
2019-06-26T00:38:11.165Z,43.20
2019-06-26T00:40:42.795Z,38.00
2019-06-26T00:43:14.623Z,42.40
2019-06-26T00:45:46.468Z,34.00
2019-06-26T00:48:18.232Z,39.00
2019-06-26T00:50:51.123Z,44.80
2019-06-26T00:53:22.779Z,44.40
2019-06-26T00:55:55.288Z,36.40
2019-06-26T00:58:27.212Z,45.20
2019-06-26T01:00:59.221Z,40.80
2019-06-26T01:03:30.821Z,46.20
2019-06-26T01:06:02.145Z,44.20
2019-06-26T01:08:33.561Z,45.00
2019-06-26T01:11:05.396Z,44.60
2019-06-26T01:13:36.874Z,49.80
2019-06-26T01:16:08.789Z,47.80
2019-06-26T01:18:40.490Z,47.60
2019-06-26T01:21:12.096Z,45.00
2019-06-26T01:23:43.872Z,49.00
2019-06-26T01:26:15.616Z,47.40
2019-06-26T01:28:47.479Z,50.40
2019-06-26T01:31:19.495Z,42.60
2019-06-26T01:33:51.214Z,45.20
2019-06-26T01:36:24.183Z,46.20
2019-06-26T01:38:58.066Z,48.20
2019-06-26T01:41:29.423Z,40.40
2019-06-26T01:44:13.718Z,44.00
2019-06-26T01:46:34.479Z,46.40
2019-06-26T01:49:06.290Z,50.20
2019-06-26T01:51:37.557Z,45.60
2019-06-26T01:54:09.450Z,45.00
2019-06-26T01:56:41.040Z,48.80
2019-06-26T01:59:12.863Z,44.80
2019-06-26T02:01:44.941Z,43.80
2019-06-26T02:04:16.189Z,47.00
2019-06-26T02:06:47.702Z,45.00
2019-06-26T02:09:19.107Z,44.40
2019-06-26T02:11:50.774Z,43.80
2019-06-26T02:14:31.181Z,47.40
2019-06-26T02:16:55.716Z,49.00
2019-06-26T02:19:27.363Z,48.60
2019-06-26T02:21:59.108Z,45.00
2019-06-26T02:24:30.786Z,39.60
2019-06-26T02:27:02.166Z,47.60
2019-06-26T02:29:34.060Z,40.60
2019-06-26T02:32:05.601Z,43.00
2019-06-26T02:34:37.226Z,45.80
2019-06-26T02:37:08.731Z,46.40
2019-06-26T02:39:40.270Z,47.20
2019-06-26T02:42:11.872Z,48.40
2019-06-26T02:44:53.043Z,45.80
2019-06-26T02:47:20.101Z,45.00
2019-06-26T02:49:50.010Z,39.00
2019-06-26T02:52:21.473Z,44.00
2019-06-26T02:54:52.778Z,37.00
2019-06-26T02:57:24.547Z,41.00
2019-06-26T02:59:56.330Z,38.20
2019-06-26T03:02:27.777Z,34.40
2019-06-26T03:04:59.747Z,38.00
2019-06-26T03:07:32.078Z,40.60
2019-06-26T03:10:03.449Z,43.60
2019-06-26T03:12:34.901Z,43.80
2019-06-26T03:15:09.404Z,44.20
2019-06-26T03:17:54.045Z,39.60
2019-06-26T03:20:14.882Z,45.20
2019-06-26T03:22:46.215Z,46.40
2019-06-26T03:25:17.715Z,44.20
2019-06-26T03:27:49.554Z,47.20
2019-06-26T03:30:21.712Z,36.40
2019-06-26T03:32:53.557Z,44.60
2019-06-26T03:35:25.251Z,45.40
2019-06-26T03:37:57.255Z,40.00
2019-06-26T03:40:28.775Z,50.60
2019-06-26T03:43:00.406Z,46.40
2019-06-26T03:45:31.917Z,48.40
2019-06-26T03:48:03.203Z,44.60
2019-06-26T03:50:34.976Z,47.00
2019-06-26T03:53:06.274Z,44.80
2019-06-26T03:55:37.990Z,43.60
2019-06-26T03:58:09.865Z,44.20
2019-06-26T04:00:42.985Z,46.40
2019-06-26T04:03:14.405Z,49.80
2019-06-26T04:05:45.694Z,45.00
2019-06-26T04:08:17.078Z,45.80
2019-06-26T04:10:48.920Z,46.60
2019-06-26T04:13:20.458Z,43.00
2019-06-26T04:15:52.213Z,47.60
2019-06-26T04:18:23.551Z,46.20
2019-06-26T04:20:55.435Z,48.00
2019-06-26T04:23:27.170Z,48.00
2019-06-26T04:25:58.575Z,45.80
2019-06-26T04:28:30.005Z,46.60
2019-06-26T04:31:02.165Z,42.40
2019-06-26T04:33:33.993Z,45.20
2019-06-26T04:36:05.558Z,48.80
2019-06-26T04:38:36.822Z,47.40
2019-06-26T04:41:08.522Z,48.80
2019-06-26T04:43:40.598Z,45.40
2019-06-26T04:46:12.207Z,45.80
2019-06-26T04:48:43.638Z,49.00
2019-06-26T04:51:15.222Z,48.00
2019-06-26T04:53:46.676Z,45.20
2019-06-26T04:56:17.999Z,46.20
2019-06-26T04:58:49.353Z,49.40
2019-06-26T05:01:21.273Z,48.60
2019-06-26T05:03:52.645Z,47.40
2019-06-26T05:06:23.966Z,45.60
2019-06-26T05:08:55.524Z,46.40
2019-06-26T05:11:26.972Z,49.40
2019-06-26T05:13:58.284Z,46.80
2019-06-26T05:16:29.808Z,47.20
2019-06-26T05:19:01.339Z,49.00
2019-06-26T05:21:32.894Z,45.00
2019-06-26T05:24:04.453Z,45.60
2019-06-26T05:26:35.989Z,45.40
2019-06-26T05:29:08.725Z,47.40
2019-06-26T05:31:40.969Z,46.40
2019-06-26T05:34:12.348Z,52.20
2019-06-26T05:36:43.911Z,49.00
2019-06-26T05:39:15.414Z,48.00
2019-06-26T05:41:47.026Z,47.00
2019-06-26T05:44:18.765Z,45.40
2019-06-26T05:46:50.382Z,45.60
2019-06-26T05:49:21.996Z,45.80
2019-06-26T05:51:53.464Z,45.60
2019-06-26T05:54:25.149Z,47.60
2019-06-26T05:56:56.551Z,43.80
2019-06-26T05:59:27.840Z,48.00
2019-06-26T06:02:00.559Z,46.00
2019-06-26T06:04:32.271Z,47.60
2019-06-26T06:07:04.231Z,46.40
2019-06-26T06:09:35.446Z,46.40
2019-06-26T06:12:07.095Z,42.00
2019-06-26T06:14:38.587Z,44.20
2019-06-26T06:17:10.030Z,46.00
2019-06-26T06:19:41.442Z,42.20
2019-06-26T06:22:12.850Z,41.40
2019-06-26T06:24:44.398Z,43.00
2019-06-26T06:27:16.083Z,38.60
2019-06-26T06:29:48.362Z,45.40
2019-06-26T06:32:20.476Z,43.20
2019-06-26T06:34:51.829Z,40.20
2019-06-26T06:37:23.201Z,35.80
2019-06-26T06:42:43.304Z,42.00
2019-06-26T06:45:15.069Z,41.20
2019-06-26T06:47:47.548Z,43.40
2019-06-26T06:50:19.330Z,43.40
2019-06-26T06:52:51.148Z,38.80
2019-06-26T06:55:23.204Z,44.60
2019-06-26T06:57:55.742Z,43.40
2019-06-26T07:00:30.923Z,45.80
2019-06-26T07:03:05.183Z,47.60
2019-06-26T07:05:37.971Z,44.60
2019-06-26T07:08:10.418Z,48.40
2019-06-26T07:10:44.476Z,46.20
2019-06-26T07:13:18.719Z,47.20
2019-06-26T07:15:52.925Z,43.60
2019-06-26T07:18:26.610Z,49.60
2019-06-26T07:21:00.340Z,41.60
2019-06-26T07:23:34.242Z,47.60
2019-06-26T07:26:09.200Z,48.00
2019-06-26T07:28:42.982Z,47.60
2019-06-26T07:31:15.607Z,49.80
2019-06-26T07:33:47.031Z,48.40
2019-06-26T07:36:18.404Z,48.00
2019-06-26T07:38:50.011Z,43.00
2019-06-26T07:41:21.607Z,48.20
2019-06-26T07:43:54.857Z,42.00
2019-06-26T07:46:26.227Z,49.40
2019-06-26T07:48:57.786Z,46.80
2019-06-26T07:51:29.428Z,49.00
2019-06-26T07:54:00.892Z,47.60
2019-06-26T07:56:32.796Z,51.60
2019-06-26T07:59:04.216Z,46.00
2019-06-26T08:01:35.886Z,45.60
2019-06-26T08:04:08.019Z,44.20
2019-06-26T08:06:39.505Z,48.60
2019-06-26T08:09:11.057Z,44.40
2019-06-26T08:11:42.533Z,46.60
2019-06-26T08:14:14.569Z,40.80
2019-06-26T08:16:45.984Z,47.60
2019-06-26T08:19:17.547Z,44.80
2019-06-26T08:21:50.016Z,48.20
2019-06-26T08:24:21.641Z,44.40
2019-06-26T08:26:53.153Z,49.40
2019-06-26T08:29:26.687Z,46.40
2019-06-26T08:31:57.955Z,45.00
2019-06-26T08:34:30.000Z,45.80
2019-06-26T08:37:01.711Z,46.20
2019-06-26T08:39:33.356Z,46.00
2019-06-26T08:42:05.274Z,45.80
2019-06-26T08:44:36.683Z,43.80
2019-06-26T08:47:08.335Z,54.80
2019-06-26T08:49:39.999Z,48.60
2019-06-26T08:52:11.608Z,43.60
2019-06-26T08:54:44.515Z,41.60
2019-06-26T08:57:16.026Z,24.80
2019-06-26T08:59:47.667Z,44.00
2019-06-26T09:02:19.368Z,50.40
2019-06-26T09:04:52.339Z,46.00
2019-06-26T09:07:25.131Z,53.00
2019-06-26T09:09:57.903Z,43.40
2019-06-26T09:12:29.564Z,30.20
2019-06-26T09:15:02.090Z,25.40
2019-06-26T09:17:33.878Z,30.00
2019-06-26T09:20:05.752Z,28.60
2019-06-26T09:22:37.484Z,33.20
2019-06-26T09:25:21.455Z,40.00
2019-06-26T09:27:45.191Z,35.00
2019-06-26T09:30:17.935Z,42.60
2019-06-26T09:32:51.726Z,48.60
2019-06-26T09:35:26.370Z,48.80
2019-06-26T09:38:00.600Z,44.20
2019-06-26T09:40:34.455Z,49.40
2019-06-26T09:43:07.318Z,44.60
2019-06-26T09:45:41.580Z,50.20
2019-06-26T09:48:16.031Z,46.80
2019-06-26T09:50:50.255Z,45.20
2019-06-26T09:53:24.008Z,48.00
2019-06-26T09:55:55.723Z,55.20
2019-06-26T09:58:27.608Z,59.00
2019-06-26T10:00:59.222Z,55.00
2019-06-26T10:03:30.726Z,50.00
2019-06-26T10:06:02.422Z,42.20
2019-06-26T10:08:33.971Z,41.80
2019-06-26T10:11:05.612Z,42.80
2019-06-26T10:13:37.389Z,35.20
2019-06-26T10:16:08.758Z,37.40
2019-06-26T10:18:40.291Z,32.20
2019-06-26T10:21:11.938Z,33.20
2019-06-26T10:23:43.620Z,36.00
2019-06-26T10:26:16.338Z,31.40
2019-06-26T10:28:47.797Z,30.00
2019-06-26T10:31:19.491Z,28.00
2019-06-26T10:33:50.710Z,31.20
2019-06-26T10:36:24.599Z,29.80
2019-06-26T10:38:55.877Z,32.20
2019-06-26T10:41:27.522Z,31.40
2019-06-26T10:43:58.765Z,31.40
2019-06-26T10:46:30.337Z,29.60
2019-06-26T10:49:01.752Z,32.00
2019-06-26T10:51:33.022Z,30.00
2019-06-26T10:54:04.493Z,41.00
2019-06-26T10:56:36.255Z,36.60
2019-06-26T10:59:07.819Z,36.80
2019-06-26T11:01:39.633Z,40.80
2019-06-26T11:04:11.376Z,40.20
2019-06-26T11:06:43.366Z,35.80
2019-06-26T11:09:14.727Z,37.80
2019-06-26T11:11:46.394Z,39.40
2019-06-26T11:14:17.977Z,43.20
2019-06-26T11:16:51.773Z,38.40
2019-06-26T11:19:23.338Z,40.20
2019-06-26T11:21:54.975Z,35.60
2019-06-26T11:24:26.465Z,36.00
2019-06-26T11:26:57.864Z,33.80
2019-06-26T11:29:29.570Z,38.00
2019-06-26T11:32:00.968Z,41.20
2019-06-26T11:34:33.431Z,36.60
2019-06-26T11:37:05.219Z,39.60
2019-06-26T11:39:37.222Z,41.20
2019-06-26T11:42:08.820Z,39.60
2019-06-26T11:44:40.431Z,45.60
2019-06-26T11:47:11.933Z,42.80
2019-06-26T11:49:55.877Z,46.80
2019-06-26T11:52:18.996Z,42.60
2019-06-26T11:55:01.723Z,42.60
2019-06-26T11:57:23.645Z,47.60
2019-06-26T11:59:55.203Z,37.40
2019-06-26T12:02:26.520Z,42.40
2019-06-26T12:04:58.104Z,44.80
2019-06-26T12:07:29.978Z,41.20
2019-06-26T12:10:01.600Z,41.20
2019-06-26T12:12:33.305Z,34.80
2019-06-26T12:15:05.522Z,43.40
2019-06-26T12:17:37.116Z,39.80
2019-06-26T12:20:18.668Z,44.80
2019-06-26T12:22:42.759Z,40.20
2019-06-26T12:25:15.128Z,41.40
2019-06-26T12:27:46.961Z,41.60
2019-06-26T12:30:18.765Z,33.80
2019-06-26T12:33:02.207Z,36.20
2019-06-26T12:35:23.977Z,41.40
2019-06-26T12:37:56.149Z,35.40
2019-06-26T12:40:30.904Z,40.00
2019-06-26T12:43:01.735Z,38.20
2019-06-26T12:45:33.555Z,42.20
2019-06-26T12:48:05.021Z,48.20
2019-06-26T12:50:36.503Z,41.00
2019-06-26T12:53:08.083Z,40.20
2019-06-26T12:55:39.762Z,45.00
2019-06-26T12:58:14.787Z,44.00
2019-06-26T13:00:45.133Z,44.00
2019-06-26T13:03:16.795Z,47.40
2019-06-26T13:05:48.494Z,42.60
2019-06-26T13:08:20.529Z,49.80
2019-06-26T13:10:52.987Z,45.00
2019-06-26T13:13:24.221Z,47.20
2019-06-26T13:15:55.726Z,50.00
2019-06-26T13:18:28.185Z,48.40
2019-06-26T13:20:59.735Z,44.60
2019-06-26T13:23:32.879Z,52.60
2019-06-26T13:26:04.805Z,45.60
2019-06-26T13:28:36.744Z,42.80
2019-06-26T13:31:08.209Z,45.20
2019-06-26T13:33:40.200Z,45.80
2019-06-26T13:36:11.710Z,49.40
2019-06-26T13:38:43.450Z,52.60
2019-06-26T13:41:14.792Z,56.00
2019-06-26T13:43:46.566Z,51.60
2019-06-26T13:46:18.200Z,50.00
2019-06-26T13:48:49.976Z,49.20
2019-06-26T13:51:21.743Z,52.40
2019-06-26T13:53:53.669Z,55.80
2019-06-26T13:56:25.393Z,54.00
2019-06-26T13:58:57.388Z,53.00
2019-06-26T14:01:28.607Z,56.20
2019-06-26T14:04:00.568Z,55.80
2019-06-26T14:06:32.413Z,51.00
2019-06-26T14:09:06.608Z,52.00
2019-06-26T14:11:38.993Z,55.40
2019-06-26T14:14:10.945Z,50.60
2019-06-26T14:16:42.760Z,54.60
2019-06-26T14:19:16.216Z,53.40
2019-06-26T14:21:47.680Z,52.80
2019-06-26T14:24:19.175Z,51.40
2019-06-26T14:26:50.751Z,50.60
2019-06-26T14:29:22.332Z,53.00
2019-06-26T14:31:53.818Z,52.40
2019-06-26T14:34:27.885Z,50.40
2019-06-26T14:36:59.072Z,55.20
2019-06-26T14:39:31.132Z,54.20
2019-06-26T14:42:02.604Z,52.40
2019-06-26T14:44:34.239Z,54.00
2019-06-26T14:47:06.016Z,51.20
2019-06-26T14:49:37.594Z,55.00
2019-06-26T14:52:09.319Z,38.80
2019-06-26T14:54:40.779Z,57.00
2019-06-26T14:57:12.180Z,54.60
2019-06-26T14:59:44.122Z,51.80
2019-06-26T15:02:16.139Z,55.40
2019-06-26T15:04:47.512Z,51.40
2019-06-26T15:07:18.819Z,50.80
2019-06-26T15:09:50.939Z,53.20
2019-06-26T15:12:22.297Z,55.20
2019-06-26T15:14:53.747Z,51.80
2019-06-26T15:17:25.289Z,50.60
2019-06-26T15:19:57.777Z,56.20
2019-06-26T15:22:29.405Z,54.60
2019-06-26T15:25:02.048Z,59.60
2019-06-26T15:27:33.557Z,56.60
2019-06-26T15:30:05.630Z,61.60
2019-06-26T15:32:36.728Z,58.20
2019-06-26T15:35:09.305Z,61.40
2019-06-26T15:37:40.434Z,58.00
2019-06-26T15:40:13.894Z,54.80
2019-06-26T15:42:44.778Z,56.60
2019-06-26T15:45:16.230Z,61.40
2019-06-26T15:47:47.729Z,60.60
2019-06-26T15:50:19.437Z,53.60
2019-06-26T15:52:50.992Z,56.20
2019-06-26T15:55:22.594Z,54.40
2019-06-26T15:57:54.269Z,57.60
2019-06-26T16:00:26.291Z,53.80
2019-06-26T16:02:58.105Z,54.00
2019-06-26T16:05:29.779Z,56.60
2019-06-26T16:08:01.606Z,52.40
2019-06-26T16:10:34.735Z,50.00
2019-06-26T16:13:06.636Z,53.00
2019-06-26T16:15:38.552Z,56.80
2019-06-26T16:18:36.466Z,51.20
2019-06-26T16:21:08.560Z,52.60
2019-06-26T16:23:40.041Z,52.20
2019-06-26T16:26:11.476Z,49.60
2019-06-26T16:28:43.010Z,45.20
2019-06-26T16:31:15.008Z,49.80
2019-06-26T16:33:46.372Z,51.00
2019-06-26T16:36:18.859Z,50.00
2019-06-26T16:38:50.602Z,51.80
2019-06-26T16:41:22.891Z,50.40
2019-06-26T16:43:54.259Z,49.60
2019-06-26T16:46:25.976Z,47.60
2019-06-26T16:50:14.380Z,47.40
2019-06-26T16:52:49.196Z,48.80
2019-06-26T16:55:17.110Z,48.80
2019-06-26T16:57:48.488Z,45.20
2019-06-26T17:00:20.171Z,43.20
2019-06-26T17:02:51.598Z,44.80
2019-06-26T17:05:23.047Z,46.20
2019-06-26T17:07:54.852Z,42.80
2019-06-26T17:10:26.278Z,46.80
2019-06-26T17:12:57.978Z,44.60
2019-06-26T17:15:29.693Z,46.00
2019-06-26T17:18:01.224Z,45.00
2019-06-26T17:20:33.667Z,39.80
2019-06-26T17:23:06.496Z,40.60
2019-06-26T17:25:38.761Z,38.80
2019-06-26T17:28:10.417Z,45.80
2019-06-26T17:30:41.841Z,44.40
2019-06-26T17:33:13.505Z,45.60
2019-06-26T17:35:45.004Z,46.00
2019-06-26T17:38:16.567Z,42.20
2019-06-26T17:40:47.845Z,37.00
2019-06-26T17:43:19.428Z,48.00
2019-06-26T17:45:50.709Z,46.00
2019-06-26T17:48:22.104Z,42.60
2019-06-26T17:50:53.559Z,43.60
2019-06-26T17:53:24.942Z,45.20
2019-06-26T17:55:56.727Z,41.00
2019-06-26T17:58:31.202Z,46.80
2019-06-26T18:01:02.827Z,40.60
2019-06-26T18:03:34.270Z,42.80
2019-06-26T18:06:05.976Z,39.60
2019-06-26T18:08:37.877Z,42.40
2019-06-26T18:11:09.552Z,38.80
2019-06-26T18:13:41.559Z,39.80
2019-06-26T18:16:13.438Z,40.80
2019-06-26T18:18:45.286Z,36.40
2019-06-26T18:21:16.573Z,38.60
2019-06-26T18:23:48.404Z,45.00
2019-06-26T18:26:20.034Z,43.40
2019-06-26T18:28:51.482Z,45.00
2019-06-26T18:31:22.736Z,41.60
2019-06-26T18:33:54.139Z,43.00
2019-06-26T18:36:25.550Z,38.40
2019-06-26T18:38:56.839Z,38.60
2019-06-26T18:41:28.174Z,43.80
2019-06-26T18:44:00.130Z,35.00
2019-06-26T18:46:32.179Z,44.40
2019-06-26T18:49:03.748Z,34.20
2019-06-26T18:51:35.344Z,38.80
2019-06-26T18:54:07.575Z,41.20
2019-06-26T18:56:39.095Z,37.20
2019-06-26T18:59:10.656Z,37.60
2019-06-26T19:01:42.162Z,34.00
2019-06-26T19:04:13.444Z,38.20
2019-06-26T19:06:45.473Z,38.00
2019-06-26T19:09:17.329Z,43.40
2019-06-26T19:11:48.633Z,31.60
2019-06-26T19:14:20.659Z,41.60
2019-06-26T19:16:52.203Z,41.40
2019-06-26T19:19:23.517Z,45.00
2019-06-26T19:21:55.182Z,42.40
2019-06-26T19:24:27.150Z,37.00
2019-06-26T19:26:58.762Z,38.60
2019-06-26T19:29:30.177Z,38.40
2019-06-26T19:32:01.562Z,41.80
2019-06-26T19:34:33.089Z,35.80
2019-06-26T19:37:04.861Z,35.60
2019-06-26T19:39:36.195Z,42.00
2019-06-26T19:42:07.879Z,41.00
2019-06-26T19:44:39.897Z,39.20
2019-06-26T19:47:11.316Z,43.00
2019-06-26T19:49:42.735Z,36.60
2019-06-26T19:52:14.321Z,36.80
2019-06-26T19:54:45.886Z,34.80
2019-06-26T19:57:17.806Z,31.80
2019-06-26T19:59:49.369Z,37.40
2019-06-26T20:02:20.871Z,34.80
2019-06-26T20:04:52.375Z,35.20
2019-06-26T20:07:24.178Z,35.60
2019-06-26T20:09:55.831Z,37.60
2019-06-26T20:12:27.143Z,32.80
2019-06-26T20:14:59.839Z,36.00
2019-06-26T20:17:31.212Z,40.20
2019-06-26T20:20:02.822Z,33.80
2019-06-26T20:22:35.757Z,29.40
2019-06-26T20:25:07.618Z,36.40
2019-06-26T20:27:39.154Z,30.60
2019-06-26T20:30:12.099Z,34.20
2019-06-26T20:32:43.679Z,36.40
2019-06-26T20:35:14.954Z,33.80
2019-06-26T20:37:46.422Z,39.80
2019-06-26T20:40:18.049Z,39.60
2019-06-26T20:42:49.811Z,37.60
2019-06-26T20:45:22.094Z,43.20
2019-06-26T20:47:53.310Z,41.00
2019-06-26T20:50:24.721Z,39.40
2019-06-26T20:52:56.075Z,35.60
2019-06-26T20:55:27.418Z,30.60
2019-06-26T20:57:58.843Z,39.80
2019-06-26T21:00:30.525Z,40.20
2019-06-26T21:03:02.180Z,41.80
2019-06-26T21:05:33.931Z,40.80
2019-06-26T21:08:05.332Z,37.80
2019-06-26T21:10:36.725Z,36.20
2019-06-26T21:13:08.024Z,37.60
2019-06-26T21:15:40.008Z,40.80
2019-06-26T21:18:11.514Z,43.00
2019-06-26T21:20:43.248Z,35.80
2019-06-26T21:23:18.675Z,41.80
2019-06-26T21:25:47.748Z,38.80
2019-06-26T21:28:19.178Z,39.20
2019-06-26T21:30:51.879Z,39.40
2019-06-26T21:33:23.339Z,36.00
2019-06-26T21:35:54.802Z,44.80
2019-06-26T21:38:26.471Z,42.60
2019-06-26T21:40:57.863Z,40.00
2019-06-26T21:43:36.499Z,45.20
2019-06-26T21:46:08.272Z,44.80
2019-06-26T21:48:39.805Z,43.60
2019-06-26T21:51:11.259Z,45.20
2019-06-26T21:53:42.494Z,42.40
2019-06-26T21:56:32.100Z,37.80
2019-06-26T21:59:21.845Z,37.60
2019-06-26T22:02:11.617Z,45.40
2019-06-26T22:04:52.240Z,42.80
2019-06-26T22:07:25.530Z,43.40
2019-06-26T22:10:14.969Z,41.40
2019-06-26T22:12:46.950Z,47.80
2019-06-26T22:15:18.725Z,44.40
2019-06-26T22:17:50.799Z,44.40
2019-06-26T22:20:22.231Z,43.00
2019-06-26T22:22:53.714Z,46.00
2019-06-26T22:25:25.237Z,39.00
2019-06-26T22:27:56.834Z,45.60
2019-06-26T22:30:28.482Z,42.20
2019-06-26T22:32:59.878Z,41.00
2019-06-26T22:35:31.368Z,42.80
2019-06-26T22:38:02.753Z,45.20
2019-06-26T22:40:34.428Z,46.40
2019-06-26T22:43:06.143Z,38.60
2019-06-26T22:45:37.562Z,49.80
2019-06-26T22:48:09.342Z,40.00
2019-06-26T22:50:40.636Z,46.40
2019-06-26T22:53:12.364Z,40.60
2019-06-26T22:55:44.169Z,41.40
2019-06-26T22:58:16.101Z,47.80
2019-06-26T23:00:47.933Z,41.60
2019-06-26T23:03:19.506Z,45.80
2019-06-26T23:05:50.934Z,45.60
2019-06-26T23:08:22.418Z,39.60
2019-06-26T23:10:54.156Z,43.20
2019-06-26T23:13:25.938Z,43.80
2019-06-26T23:15:57.662Z,47.20
2019-06-26T23:18:29.369Z,41.60
2019-06-26T23:21:01.751Z,38.60
2019-06-26T23:23:33.385Z,48.00
2019-06-26T23:26:05.183Z,42.80
2019-06-26T23:28:36.783Z,46.40
2019-06-26T23:31:08.616Z,42.00
2019-06-26T23:33:42.957Z,46.00
2019-06-26T23:36:14.676Z,37.00
2019-06-26T23:38:46.137Z,40.80
2019-06-26T23:41:18.173Z,42.40
2019-06-26T23:43:49.849Z,46.20
2019-06-26T23:46:21.604Z,40.80
2019-06-26T23:48:53.208Z,40.60
2019-06-26T23:51:24.750Z,37.20
2019-06-26T23:53:56.302Z,36.60
2019-06-26T23:56:40.044Z,49.40
2019-06-26T23:59:00.559Z,43.00
